sensor_id;sensor_type;location;lat;lon;timestamp;pressure;altitude;pressure_sealevel;temperature;humidity
58243;BME280;50118;53.232;8.252;2022-12-18T00:01:34;102784.63;;;-5.65;100.00
58243;BME280;50118;53.232;8.252;2022-12-18T00:04:03;102775.94;;;-5.70;100.00
58243;BME280;50118;53.232;8.252;2022-12-18T00:06:29;102775.88;;;-5.77;100.00
58243;BME280;50118;53.232;8.252;2022-12-18T00:08:56;102777.56;;;-5.84;100.00
58243;BME280;50118;53.232;8.252;2022-12-18T00:11:24;102771.56;;;-5.80;100.00
58243;BME280;50118;53.232;8.252;2022-12-18T00:13:50;102777.63;;;-5.76;100.00
58243;BME280;50118;53.232;8.252;2022-12-18T00:16:19;102778.44;;;-5.87;100.00
58243;BME280;50118;53.232;8.252;2022-12-18T00:18:46;102773.28;;;-5.76;100.00
58243;BME280;50118;53.232;8.252;2022-12-18T00:21:12;102774.16;;;-5.72;100.00
58243;BME280;50118;53.232;8.252;2022-12-18T00:23:39;102772.47;;;-5.69;100.00
58243;BME280;50118;53.232;8.252;2022-12-18T00:26:09;102768.06;;;-5.79;100.00
58243;BME280;50118;53.232;8.252;2022-12-18T00:28:35;102760.28;;;-5.79;100.00
58243;BME280;50118;53.232;8.252;2022-12-18T00:31:06;102760.31;;;-5.76;100.00
58243;BME280;50118;53.232;8.252;2022-12-18T00:33:32;102766.38;;;-5.77;100.00
58243;BME280;50118;53.232;8.252;2022-12-18T00:36:18;102756.88;;;-5.75;100.00
58243;BME280;50118;53.232;8.252;2022-12-18T00:38:44;102759.41;;;-5.87;100.00
58243;BME280;50118;53.232;8.252;2022-12-18T00:41:12;102751.59;;;-5.86;100.00
58243;BME280;50118;53.232;8.252;2022-12-18T00:43:38;102753.34;;;-5.85;100.00
58243;BME280;50118;53.232;8.252;2022-12-18T00:46:04;102761.19;;;-5.77;100.00
58243;BME280;50118;53.232;8.252;2022-12-18T00:48:30;102756.84;;;-5.79;100.00
58243;BME280;50118;53.232;8.252;2022-12-18T00:50:55;102764.63;;;-5.78;100.00
58243;BME280;50118;53.232;8.252;2022-12-18T00:53:21;102768.06;;;-5.85;100.00
58243;BME280;50118;53.232;8.252;2022-12-18T00:55:46;102761.09;;;-5.89;100.00
58243;BME280;50118;53.232;8.252;2022-12-18T00:58:13;102763.78;;;-5.78;100.00
58243;BME280;50118;53.232;8.252;2022-12-18T01:00:39;102775.84;;;-5.85;100.00
58243;BME280;50118;53.232;8.252;2022-12-18T01:03:05;102771.50;;;-5.86;100.00
58243;BME280;50118;53.232;8.252;2022-12-18T01:05:31;102779.25;;;-5.94;100.00
58243;BME280;50118;53.232;8.252;2022-12-18T01:07:57;102785.13;;;-6.21;100.00
58243;BME280;50118;53.232;8.252;2022-12-18T01:10:23;102792.91;;;-6.21;100.00
58243;BME280;50118;53.232;8.252;2022-12-18T01:12:49;102798.97;;;-6.19;100.00
58243;BME280;50118;53.232;8.252;2022-12-18T01:15:15;102779.84;;;-6.30;100.00
58243;BME280;50118;53.232;8.252;2022-12-18T01:17:41;102788.56;;;-6.22;100.00
58243;BME280;50118;53.232;8.252;2022-12-18T01:20:07;102794.50;;;-6.35;100.00
58243;BME280;50118;53.232;8.252;2022-12-18T01:22:34;102794.50;;;-6.35;100.00
58243;BME280;50118;53.232;8.252;2022-12-18T01:24:59;102797.06;;;-6.42;100.00
58243;BME280;50118;53.232;8.252;2022-12-18T01:27:25;102796.94;;;-6.54;100.00
58243;BME280;50118;53.232;8.252;2022-12-18T01:29:50;102807.16;;;-6.69;100.00
58243;BME280;50118;53.232;8.252;2022-12-18T01:32:16;102807.09;;;-6.76;100.00
58243;BME280;50118;53.232;8.252;2022-12-18T01:34:41;102810.63;;;-6.70;100.00
58243;BME280;50118;53.232;8.252;2022-12-18T01:37:07;102804.41;;;-6.83;100.00
58243;BME280;50118;53.232;8.252;2022-12-18T01:39:32;102813.13;;;-6.77;100.00
58243;BME280;50118;53.232;8.252;2022-12-18T01:42:18;102819.03;;;-6.90;100.00
58243;BME280;50118;53.232;8.252;2022-12-18T01:49:57;102834.31;;;-7.13;100.00
58243;BME280;50118;53.232;8.252;2022-12-18T01:52:25;102841.13;;;-7.20;100.00
58243;BME280;50118;53.232;8.252;2022-12-18T01:54:51;102832.44;;;-7.25;100.00
58243;BME280;50118;53.232;8.252;2022-12-18T01:57:18;102840.25;;;-7.22;100.00
58243;BME280;50118;53.232;8.252;2022-12-18T01:59:48;102829.72;;;-7.33;100.00
58243;BME280;50118;53.232;8.252;2022-12-18T02:02:16;102827.00;;;-7.43;100.00
58243;BME280;50118;53.232;8.252;2022-12-18T02:04:42;102841.56;;;-7.52;100.00
58243;BME280;50118;53.232;8.252;2022-12-18T02:12:23;102831.06;;;-7.62;100.00
58243;BME280;50118;53.232;8.252;2022-12-18T02:15:00;102834.38;;;-7.71;100.00
58243;BME280;50118;53.232;8.252;2022-12-18T02:17:36;102836.94;;;-7.74;100.00
58243;BME280;50118;53.232;8.252;2022-12-18T02:20:25;102835.16;;;-7.75;100.00
58243;BME280;50118;53.232;8.252;2022-12-18T02:23:00;102828.28;;;-7.76;100.00
58243;BME280;50118;53.232;8.252;2022-12-18T02:28:22;102818.66;;;-7.83;100.00
58243;BME280;50118;53.232;8.252;2022-12-18T02:30:53;102815.13;;;-7.89;100.00
58243;BME280;50118;53.232;8.252;2022-12-18T02:33:19;102807.19;;;-8.01;100.00
58243;BME280;50118;53.232;8.252;2022-12-18T02:35:46;102809.56;;;-8.15;100.00
58243;BME280;50118;53.232;8.252;2022-12-18T02:38:14;102812.81;;;-8.27;100.00
58243;BME280;50118;53.232;8.252;2022-12-18T02:40:42;102801.56;;;-8.29;100.00
58243;BME280;50118;53.232;8.252;2022-12-18T02:43:14;102805.94;;;-8.24;100.00
58243;BME280;50118;53.232;8.252;2022-12-18T02:45:49;102810.28;;;-8.23;100.00
58243;BME280;50118;53.232;8.252;2022-12-18T02:48:17;102810.22;;;-8.27;100.00
58243;BME280;50118;53.232;8.252;2022-12-18T02:51:03;102811.75;;;-8.38;100.00
58243;BME280;50118;53.232;8.252;2022-12-18T02:53:53;102820.31;;;-8.42;100.00
58243;BME280;50118;53.232;8.252;2022-12-18T02:56:28;102813.41;;;-8.43;100.00
58243;BME280;50118;53.232;8.252;2022-12-18T02:59:00;102821.91;;;-8.50;100.00
58243;BME280;50118;53.232;8.252;2022-12-18T03:01:49;102818.44;;;-8.52;100.00
58243;BME280;50118;53.232;8.252;2022-12-18T03:04:30;102827.03;;;-8.53;100.00
58243;BME280;50118;53.232;8.252;2022-12-18T03:07:08;102816.59;;;-8.59;100.00
58243;BME280;50118;53.232;8.252;2022-12-18T03:09:37;102818.25;;;-8.61;100.00
58243;BME280;50118;53.232;8.252;2022-12-18T03:15:09;102807.91;;;-8.61;100.00
58243;BME280;50118;53.232;8.252;2022-12-18T03:17:36;102813.88;;;-8.66;100.00
58243;BME280;50118;53.232;8.252;2022-12-18T03:20:15;102817.25;;;-8.70;100.00
58243;BME280;50118;53.232;8.252;2022-12-18T03:22:43;102809.50;;;-8.70;100.00
58243;BME280;50118;53.232;8.252;2022-12-18T03:25:11;102811.22;;;-8.69;100.00
58243;BME280;50118;53.232;8.252;2022-12-18T03:27:42;102809.44;;;-8.73;100.00
58243;BME280;50118;53.232;8.252;2022-12-18T03:30:10;102822.28;;;-8.77;100.00
58243;BME280;50118;53.232;8.252;2022-12-18T03:33:04;102840.22;;;-8.85;100.00
58243;BME280;50118;53.232;8.252;2022-12-18T03:35:35;102838.53;;;-8.83;100.00
58243;BME280;50118;53.232;8.252;2022-12-18T03:38:06;102828.13;;;-8.86;100.00
58243;BME280;50118;53.232;8.252;2022-12-18T03:40:44;102819.25;;;-8.99;100.00
58243;BME280;50118;53.232;8.252;2022-12-18T03:46:10;102802.78;;;-9.07;100.00
58243;BME280;50118;53.232;8.252;2022-12-18T03:49:08;102812.22;;;-9.08;100.00
58243;BME280;50118;53.232;8.252;2022-12-18T03:51:54;102817.31;;;-9.11;100.00
58243;BME280;50118;53.232;8.252;2022-12-18T03:54:22;102820.69;;;-9.15;100.00
58243;BME280;50118;53.232;8.252;2022-12-18T03:56:58;102810.25;;;-9.20;100.00
58243;BME280;50118;53.232;8.252;2022-12-18T03:59:26;102807.72;;;-9.16;100.00
58243;BME280;50118;53.232;8.252;2022-12-18T04:01:53;102803.25;;;-9.25;100.00
58243;BME280;50118;53.232;8.252;2022-12-18T04:04:21;102810.88;;;-9.30;100.00
58243;BME280;50118;53.232;8.252;2022-12-18T04:06:47;102813.38;;;-9.36;100.00
58243;BME280;50118;53.232;8.252;2022-12-18T04:09:15;102808.03;;;-9.44;100.00
58243;BME280;50118;53.232;8.252;2022-12-18T04:11:41;102806.22;;;-9.48;100.00
58243;BME280;50118;53.232;8.252;2022-12-18T04:14:09;102807.91;;;-9.50;100.00
58243;BME280;50118;53.232;8.252;2022-12-18T04:16:34;102812.94;;;-9.56;100.00
58243;BME280;50118;53.232;8.252;2022-12-18T04:18:59;102808.56;;;-9.60;100.00
58243;BME280;50118;53.232;8.252;2022-12-18T04:21:25;102809.44;;;-9.58;100.00
58243;BME280;50118;53.232;8.252;2022-12-18T04:23:50;102803.63;;;-9.49;100.00
58243;BME280;50118;53.232;8.252;2022-12-18T04:26:16;102806.31;;;-9.45;100.00
58243;BME280;50118;53.232;8.252;2022-12-18T04:28:41;102808.66;;;-9.54;100.00
58243;BME280;50118;53.232;8.252;2022-12-18T04:31:07;102814.69;;;-9.55;100.00
58243;BME280;50118;53.232;8.252;2022-12-18T04:33:32;102813.63;;;-9.63;100.00
58243;BME280;50118;53.232;8.252;2022-12-18T04:35:57;102818.72;;;-9.66;100.00
58243;BME280;50118;53.232;8.252;2022-12-18T04:38:23;102807.63;;;-9.62;100.00
58243;BME280;50118;53.232;8.252;2022-12-18T04:40:48;102814.53;;;-9.61;100.00
58243;BME280;50118;53.232;8.252;2022-12-18T04:43:14;102818.06;;;-9.58;100.00
58243;BME280;50118;53.232;8.252;2022-12-18T04:45:40;102821.50;;;-9.57;100.00
58243;BME280;50118;53.232;8.252;2022-12-18T04:48:05;102823.31;;;-9.53;100.00
58243;BME280;50118;53.232;8.252;2022-12-18T04:50:31;102817.19;;;-9.58;100.00
58243;BME280;50118;53.232;8.252;2022-12-18T04:52:57;102818.94;;;-9.55;100.00
58243;BME280;50118;53.232;8.252;2022-12-18T04:55:26;102818.00;;;-9.59;100.00
58243;BME280;50118;53.232;8.252;2022-12-18T04:57:52;102819.91;;;-9.50;100.00
58243;BME280;50118;53.232;8.252;2022-12-18T05:00:18;102829.53;;;-9.45;100.00
58243;BME280;50118;53.232;8.252;2022-12-18T05:02:43;102834.69;;;-9.43;100.00
58243;BME280;50118;53.232;8.252;2022-12-18T05:05:09;102837.38;;;-9.39;100.00
58243;BME280;50118;53.232;8.252;2022-12-18T05:07:34;102832.16;;;-9.42;100.00
58243;BME280;50118;53.232;8.252;2022-12-18T05:10:00;102848.66;;;-9.35;100.00
58243;BME280;50118;53.232;8.252;2022-12-18T05:12:25;102851.16;;;-9.40;100.00
58243;BME280;50118;53.232;8.252;2022-12-18T05:14:51;102851.06;;;-9.43;100.00
58243;BME280;50118;53.232;8.252;2022-12-18T05:17:17;102852.75;;;-9.45;100.00
58243;BME280;50118;53.232;8.252;2022-12-18T05:19:42;102848.34;;;-9.49;100.00
58243;BME280;50118;53.232;8.252;2022-12-18T05:22:08;102843.97;;;-9.53;100.00
58243;BME280;50118;53.232;8.252;2022-12-18T05:24:34;102840.41;;;-9.58;100.00
58243;BME280;50118;53.232;8.252;2022-12-18T05:26:59;102841.19;;;-9.61;100.00
58243;BME280;50118;53.232;8.252;2022-12-18T05:29:25;102843.97;;;-9.53;100.00
58243;BME280;50118;53.232;8.252;2022-12-18T05:32:12;102846.59;;;-9.51;100.00
58243;BME280;50118;53.232;8.252;2022-12-18T05:34:38;102845.56;;;-9.58;100.00
58243;BME280;50118;53.232;8.252;2022-12-18T05:37:03;102838.56;;;-9.62;100.00
58243;BME280;50118;53.232;8.252;2022-12-18T05:39:29;102837.78;;;-9.60;100.00
58243;BME280;50118;53.232;8.252;2022-12-18T05:41:54;102839.31;;;-9.68;100.00
58243;BME280;50118;53.232;8.252;2022-12-18T05:44:20;102836.72;;;-9.69;100.00
58243;BME280;50118;53.232;8.252;2022-12-18T05:46:45;102835.75;;;-9.73;100.00
58243;BME280;50118;53.232;8.252;2022-12-18T05:49:10;102841.72;;;-9.76;100.00
58243;BME280;50118;53.232;8.252;2022-12-18T05:51:36;102852.19;;;-9.69;100.00
58243;BME280;50118;53.232;8.252;2022-12-18T05:54:01;102829.75;;;-9.73;100.00
58243;BME280;50118;53.232;8.252;2022-12-18T05:56:27;102847.75;;;-9.75;100.00
58243;BME280;50118;53.232;8.252;2022-12-18T05:58:53;102844.28;;;-9.77;100.00
58243;BME280;50118;53.232;8.252;2022-12-18T06:01:23;102856.16;;;-9.84;100.00
58243;BME280;50118;53.232;8.252;2022-12-18T06:03:49;102849.16;;;-9.88;100.00
58243;BME280;50118;53.232;8.252;2022-12-18T06:06:26;102862.22;;;-9.82;100.00
58243;BME280;50118;53.232;8.252;2022-12-18T06:08:52;102850.22;;;-9.80;100.00
58243;BME280;50118;53.232;8.252;2022-12-18T06:11:21;102856.97;;;-9.85;100.00
58243;BME280;50118;53.232;8.252;2022-12-18T06:13:50;102868.13;;;-9.87;100.00
58243;BME280;50118;53.232;8.252;2022-12-18T06:16:15;102868.13;;;-9.87;100.00
58243;BME280;50118;53.232;8.252;2022-12-18T06:18:41;102860.38;;;-9.86;100.00
58243;BME280;50118;53.232;8.252;2022-12-18T06:21:06;102856.97;;;-9.85;100.00
58243;BME280;50118;53.232;8.252;2022-12-18T06:23:32;102858.16;;;-9.70;100.00
58243;BME280;50118;53.232;8.252;2022-12-18T06:25:57;102849.53;;;-9.72;100.00
58243;BME280;50118;53.232;8.252;2022-12-18T06:28:23;102843.38;;;-9.78;100.00
58243;BME280;50118;53.232;8.252;2022-12-18T06:30:49;102862.28;;;-9.79;100.00
58243;BME280;50118;53.232;8.252;2022-12-18T06:33:15;102845.94;;;-9.79;100.00
58243;BME280;50118;53.232;8.252;2022-12-18T06:35:41;102849.38;;;-9.80;100.00
58243;BME280;50118;53.232;8.252;2022-12-18T06:38:07;102858.81;;;-9.79;100.00
58243;BME280;50118;53.232;8.252;2022-12-18T06:40:32;102852.69;;;-9.84;100.00
58243;BME280;50118;53.232;8.252;2022-12-18T06:42:58;102866.34;;;-9.88;100.00
58243;BME280;50118;53.232;8.252;2022-12-18T06:45:23;102861.97;;;-9.92;100.00
58243;BME280;50118;53.232;8.252;2022-12-18T06:47:49;102878.44;;;-9.87;100.00
58243;BME280;50118;53.232;8.252;2022-12-18T06:50:15;102879.13;;;-9.93;100.00
58243;BME280;50118;53.232;8.252;2022-12-18T06:52:40;102874.88;;;-9.92;100.00
58243;BME280;50118;53.232;8.252;2022-12-18T06:55:10;102879.91;;;-9.97;100.00
58243;BME280;50118;53.232;8.252;2022-12-18T06:57:37;102877.25;;;-10.00;100.00
58243;BME280;50118;53.232;8.252;2022-12-18T07:00:04;102877.19;;;-10.02;100.00
58243;BME280;50118;53.232;8.252;2022-12-18T07:02:30;102872.84;;;-10.04;100.00
58243;BME280;50118;53.232;8.252;2022-12-18T07:04:56;102877.03;;;-10.08;100.00
58243;BME280;50118;53.232;8.252;2022-12-18T07:07:22;102875.25;;;-10.10;100.00
58243;BME280;50118;53.232;8.252;2022-12-18T07:09:49;102868.53;;;-10.05;100.00
58243;BME280;50118;53.232;8.252;2022-12-18T07:12:15;102870.09;;;-10.10;100.00
58243;BME280;50118;53.232;8.252;2022-12-18T07:14:40;102864.09;;;-10.11;100.00
58243;BME280;50118;53.232;8.252;2022-12-18T07:17:05;102864.94;;;-10.10;100.00
58243;BME280;50118;53.232;8.252;2022-12-18T07:19:31;102862.53;;;-10.04;100.00
58243;BME280;50118;53.232;8.252;2022-12-18T07:21:57;102862.50;;;-10.06;100.00
58243;BME280;50118;53.232;8.252;2022-12-18T07:24:22;102867.69;;;-10.04;100.00
58243;BME280;50118;53.232;8.252;2022-12-18T07:26:48;102862.50;;;-10.06;100.00
58243;BME280;50118;53.232;8.252;2022-12-18T07:29:13;102854.06;;;-9.99;100.00
58243;BME280;50118;53.232;8.252;2022-12-18T07:31:39;102860.47;;;-9.83;100.00
58243;BME280;50118;53.232;8.252;2022-12-18T07:34:05;102862.06;;;-9.88;100.00
58243;BME280;50118;53.232;8.252;2022-12-18T07:36:30;102869.25;;;-9.74;100.00
58243;BME280;50118;53.232;8.252;2022-12-18T07:38:56;102859.03;;;-9.71;100.00
58243;BME280;50118;53.232;8.252;2022-12-18T07:41:21;102860.81;;;-9.67;100.00
58243;BME280;50118;53.232;8.252;2022-12-18T07:43:47;102849.94;;;-9.54;100.00
58243;BME280;50118;53.232;8.252;2022-12-18T07:46:14;102866.63;;;-9.40;100.00
58243;BME280;50118;53.232;8.252;2022-12-18T07:48:41;102864.34;;;-9.26;100.00
58243;BME280;50118;53.232;8.252;2022-12-18T07:51:07;102855.63;;;-9.31;100.00
58243;BME280;50118;53.232;8.252;2022-12-18T07:53:34;102861.84;;;-9.21;100.00
58243;BME280;50118;53.232;8.252;2022-12-18T07:56:03;102860.22;;;-9.16;100.00
58243;BME280;50118;53.232;8.252;2022-12-18T07:58:29;102862.13;;;-9.09;100.00
58243;BME280;50118;53.232;8.252;2022-12-18T08:01:05;102853.59;;;-9.05;100.00
58243;BME280;50118;53.232;8.252;2022-12-18T08:03:31;102850.28;;;-8.97;100.00
58243;BME280;50118;53.232;8.252;2022-12-18T08:06:01;102850.19;;;-9.04;100.00
58243;BME280;50118;53.232;8.252;2022-12-18T08:08:27;102860.66;;;-8.96;100.00
58243;BME280;50118;53.232;8.252;2022-12-18T08:10:52;102864.16;;;-8.92;100.00
58243;BME280;50118;53.232;8.252;2022-12-18T08:13:18;102869.28;;;-8.95;100.00
58243;BME280;50118;53.232;8.252;2022-12-18T08:15:43;102870.44;;;-8.81;100.00
58243;BME280;50118;53.232;8.252;2022-12-18T08:18:09;102865.19;;;-8.84;100.00
58243;BME280;50118;53.232;8.252;2022-12-18T08:20:34;102868.63;;;-8.84;100.00
58243;BME280;50118;53.232;8.252;2022-12-18T08:23:00;102859.28;;;-8.80;100.00
58243;BME280;50118;53.232;8.252;2022-12-18T08:25:29;102869.84;;;-8.68;100.00
58243;BME280;50118;53.232;8.252;2022-12-18T08:27:54;102869.03;;;-8.64;100.00
58243;BME280;50118;53.232;8.252;2022-12-18T08:30:21;102858.09;;;-8.50;100.00
58243;BME280;50118;53.232;8.252;2022-12-18T08:32:51;102854.00;;;-8.37;100.00
58243;BME280;50118;53.232;8.252;2022-12-18T08:35:20;102851.38;;;-8.39;100.00
58243;BME280;50118;53.232;8.252;2022-12-18T08:37:48;102852.47;;;-8.24;100.00
58243;BME280;50118;53.232;8.252;2022-12-18T08:40:14;102851.81;;;-8.13;100.00
58243;BME280;50118;53.232;8.252;2022-12-18T08:42:45;102846.81;;;-8.02;100.00
58243;BME280;50118;53.232;8.252;2022-12-18T08:45:33;102847.16;;;-7.80;100.00
58243;BME280;50118;53.232;8.252;2022-12-18T08:47:59;102844.72;;;-7.73;100.00
58243;BME280;50118;53.232;8.252;2022-12-18T08:50:28;102846.47;;;-7.70;100.00
58243;BME280;50118;53.232;8.252;2022-12-18T08:52:53;102856.03;;;-7.66;100.00
58243;BME280;50118;53.232;8.252;2022-12-18T08:55:19;102845.81;;;-7.57;100.00
58243;BME280;50118;53.232;8.252;2022-12-18T08:57:48;102849.31;;;-7.52;100.00
58243;BME280;50118;53.232;8.252;2022-12-18T09:00:15;102844.25;;;-7.45;100.00
58243;BME280;50118;53.232;8.252;2022-12-18T09:02:40;102845.13;;;-7.43;100.00
58243;BME280;50118;53.232;8.252;2022-12-18T09:05:06;102861.75;;;-7.26;100.00
58243;BME280;50118;53.232;8.252;2022-12-18T09:07:34;102865.22;;;-7.24;100.00
58243;BME280;50118;53.232;8.252;2022-12-18T09:10:00;102867.16;;;-7.10;100.00
58243;BME280;50118;53.232;8.252;2022-12-18T09:12:25;102870.72;;;-7.02;100.00
58243;BME280;50118;53.232;8.252;2022-12-18T09:14:51;102874.31;;;-6.91;100.00
58243;BME280;50118;53.232;8.252;2022-12-18T09:17:16;102870.13;;;-6.78;100.00
58243;BME280;50118;53.232;8.252;2022-12-18T09:19:41;102877.13;;;-6.69;100.00
58243;BME280;50118;53.232;8.252;2022-12-18T09:22:07;102876.38;;;-6.59;100.00
58243;BME280;50118;53.232;8.252;2022-12-18T09:24:32;102880.81;;;-6.49;100.00
58243;BME280;50118;53.232;8.252;2022-12-18T09:26:58;102871.31;;;-6.50;100.00
58243;BME280;50118;53.232;8.252;2022-12-18T09:29:24;102874.94;;;-6.34;100.00
58243;BME280;50118;53.232;8.252;2022-12-18T09:31:49;102887.03;;;-6.36;100.00
58243;BME280;50118;53.232;8.252;2022-12-18T09:34:15;102891.34;;;-6.36;100.00
58243;BME280;50118;53.232;8.252;2022-12-18T09:36:41;102880.06;;;-6.39;100.00
58243;BME280;50118;53.232;8.252;2022-12-18T09:39:07;102873.16;;;-6.40;100.00
58243;BME280;50118;53.232;8.252;2022-12-18T09:41:52;102882.72;;;-6.34;100.00
58243;BME280;50118;53.232;8.252;2022-12-18T09:44:27;102887.84;;;-6.39;100.00
58243;BME280;50118;53.232;8.252;2022-12-18T09:52:55;102880.34;;;-6.11;100.00
58243;BME280;50118;53.232;8.252;2022-12-18T09:55:32;102881.28;;;-6.01;100.00
58243;BME280;50118;53.232;8.252;2022-12-18T09:58:32;102882.19;;;-5.94;100.00
58243;BME280;50118;53.232;8.252;2022-12-18T10:00:58;102886.56;;;-5.89;100.00
58243;BME280;50118;53.232;8.252;2022-12-18T10:03:27;102883.13;;;-5.85;100.00
58243;BME280;50118;53.232;8.252;2022-12-18T10:06:08;102877.22;;;-5.68;100.00
58243;BME280;50118;53.232;8.252;2022-12-18T10:08:54;102872.03;;;-5.67;100.00
58243;BME280;50118;53.232;8.252;2022-12-18T10:19:38;102858.28;;;-5.47;100.00
58243;BME280;50118;53.232;8.252;2022-12-18T10:25:05;102849.66;;;-5.40;100.00
58243;BME280;50118;53.232;8.252;2022-12-18T10:27:39;102847.88;;;-5.50;100.00
58243;BME280;50118;53.232;8.252;2022-12-18T10:30:13;102845.31;;;-5.47;100.00
58243;BME280;50118;53.232;8.252;2022-12-18T10:32:40;102850.56;;;-5.33;100.00
58243;BME280;50118;53.232;8.252;2022-12-18T10:35:25;102834.16;;;-5.31;100.00
58243;BME280;50118;53.232;8.252;2022-12-18T10:38:07;102847.09;;;-5.37;100.00
58243;BME280;50118;53.232;8.252;2022-12-18T10:40:53;102844.47;;;-5.40;100.00
58243;BME280;50118;53.232;8.252;2022-12-18T10:43:25;102840.19;;;-5.33;100.00
58243;BME280;50118;53.232;8.252;2022-12-18T10:46:17;102834.09;;;-5.40;100.00
58243;BME280;50118;53.232;8.252;2022-12-18T10:51:28;102825.44;;;-5.39;100.00
58243;BME280;50118;53.232;8.252;2022-12-18T10:54:02;102822.97;;;-5.10;100.00
58243;BME280;50118;53.232;8.252;2022-12-18T10:56:30;102809.13;;;-5.02;100.00
58243;BME280;50118;53.232;8.252;2022-12-18T11:01:27;102812.69;;;-4.85;100.00
58243;BME280;50118;53.232;8.252;2022-12-18T11:06:21;102803.16;;;-4.74;100.00
58243;BME280;50118;53.232;8.252;2022-12-18T11:09:00;102792.78;;;-4.66;100.00
58243;BME280;50118;53.232;8.252;2022-12-18T11:11:27;102795.41;;;-4.51;100.00
58243;BME280;50118;53.232;8.252;2022-12-18T11:14:12;102791.06;;;-4.52;100.00
58243;BME280;50118;53.232;8.252;2022-12-18T11:16:47;102796.28;;;-4.45;100.00
58243;BME280;50118;53.232;8.252;2022-12-18T11:19:31;102798.88;;;-4.30;100.00
58243;BME280;50118;53.232;8.252;2022-12-18T11:21:57;102784.16;;;-4.25;100.00
58243;BME280;50118;53.232;8.252;2022-12-18T11:24:29;102779.81;;;-4.17;100.00
58243;BME280;50118;53.232;8.252;2022-12-18T11:27:01;102785.84;;;-4.02;100.00
58243;BME280;50118;53.232;8.252;2022-12-18T11:29:34;102784.09;;;-3.85;100.00
58243;BME280;50118;53.232;8.252;2022-12-18T11:32:41;102779.75;;;-3.72;100.00
58243;BME280;50118;53.232;8.252;2022-12-18T11:38:01;102765.78;;;-3.48;100.00
58243;BME280;50118;53.232;8.252;2022-12-18T11:40:36;102762.38;;;-3.62;100.00
58243;BME280;50118;53.232;8.252;2022-12-18T11:43:26;102750.19;;;-3.54;100.00
58243;BME280;50118;53.232;8.252;2022-12-18T11:45:56;102741.53;;;-3.65;100.00
58243;BME280;50118;53.232;8.252;2022-12-18T11:48:34;102732.75;;;-3.46;100.00
58243;BME280;50118;53.232;8.252;2022-12-18T11:51:04;102737.94;;;-3.36;100.00
58243;BME280;50118;53.232;8.252;2022-12-18T11:53:33;102734.56;;;-3.63;100.00
58243;BME280;50118;53.232;8.252;2022-12-18T11:58:43;102724.91;;;-3.36;100.00
58243;BME280;50118;53.232;8.252;2022-12-18T12:20:25;102732.03;;;-3.99;100.00
58243;BME280;50118;53.232;8.252;2022-12-18T12:25:52;102702.50;;;-3.79;100.00
58243;BME280;50118;53.232;8.252;2022-12-18T12:28:32;102690.34;;;-3.82;100.00
58243;BME280;50118;53.232;8.252;2022-12-18T12:34:06;102694.75;;;-3.98;100.00
58243;BME280;50118;53.232;8.252;2022-12-18T12:36:45;102695.59;;;-3.97;100.00
58243;BME280;50118;53.232;8.252;2022-12-18T12:39:18;102688.69;;;-4.10;100.00
58243;BME280;50118;53.232;8.252;2022-12-18T12:41:47;102681.75;;;-4.08;100.00
58243;BME280;50118;53.232;8.252;2022-12-18T12:44:40;102680.03;;;-4.14;100.00
58243;BME280;50118;53.232;8.252;2022-12-18T12:47:32;102667.84;;;-4.01;100.00
58243;BME280;50118;53.232;8.252;2022-12-18T12:50:03;102666.97;;;-3.99;100.00
58243;BME280;50118;53.232;8.252;2022-12-18T12:52:51;102659.13;;;-3.86;100.00
58243;BME280;50118;53.232;8.252;2022-12-18T12:55:27;102664.41;;;-4.03;100.00
58243;BME280;50118;53.232;8.252;2022-12-18T12:58:02;102655.72;;;-4.11;100.00
58243;BME280;50118;53.232;8.252;2022-12-18T13:00:42;102650.53;;;-4.15;100.00
58243;BME280;50118;53.232;8.252;2022-12-18T13:03:34;102657.41;;;-3.92;100.00
58243;BME280;50118;53.232;8.252;2022-12-18T13:06:53;102660.84;;;-3.88;100.00
58243;BME280;50118;53.232;8.252;2022-12-18T13:08:59;102655.63;;;-3.81;100.00
58243;BME280;50118;53.232;8.252;2022-12-18T13:11:40;102638.31;;;-4.00;100.00
58243;BME280;50118;53.232;8.252;2022-12-18T13:19:43;102632.22;;;-3.88;100.00
58243;BME280;50118;53.232;8.252;2022-12-18T13:22:32;102620.16;;;-4.11;100.00
58243;BME280;50118;53.232;8.252;2022-12-18T13:24:59;102614.94;;;-4.16;100.00
58243;BME280;50118;53.232;8.252;2022-12-18T13:38:33;102605.38;;;-4.10;100.00
58243;BME280;50118;53.232;8.252;2022-12-18T13:43:46;102598.47;;;-4.11;100.00
58243;BME280;50118;53.232;8.252;2022-12-18T13:51:50;102595.88;;;-4.10;100.00
58243;BME280;50118;53.232;8.252;2022-12-18T13:54:21;102595.88;;;-4.16;100.00
58243;BME280;50118;53.232;8.252;2022-12-18T13:56:49;102600.22;;;-4.14;100.00
58243;BME280;50118;53.232;8.252;2022-12-18T13:59:23;102598.47;;;-4.11;100.00
58243;BME280;50118;53.232;8.252;2022-12-18T14:01:57;102588.91;;;-4.14;100.00
58243;BME280;50118;53.232;8.252;2022-12-18T14:04:32;102582.84;;;-4.13;100.00
58243;BME280;50118;53.232;8.252;2022-12-18T14:07:12;102578.59;;;-4.37;100.00
58243;BME280;50118;53.232;8.252;2022-12-18T14:10:02;102581.16;;;-4.22;100.00
58243;BME280;50118;53.232;8.252;2022-12-18T14:12:30;102573.41;;;-4.37;100.00
58243;BME280;50118;53.232;8.252;2022-12-18T14:17:57;102563.88;;;-4.47;100.00
58243;BME280;50118;53.232;8.252;2022-12-18T14:20:25;102563.00;;;-4.37;100.00
58243;BME280;50118;53.232;8.252;2022-12-18T14:22:51;102560.41;;;-4.40;100.00
58243;BME280;50118;53.232;8.252;2022-12-18T14:25:20;102554.34;;;-4.55;100.00
58243;BME280;50118;53.232;8.252;2022-12-18T14:27:49;102559.53;;;-4.47;100.00
58243;BME280;50118;53.232;8.252;2022-12-18T14:30:31;102555.25;;;-4.56;100.00
58243;BME280;50118;53.232;8.252;2022-12-18T14:33:02;102550.03;;;-4.53;100.00
58243;BME280;50118;53.232;8.252;2022-12-18T14:35:28;102555.25;;;-4.56;100.00
58243;BME280;50118;53.232;8.252;2022-12-18T14:37:55;102563.88;;;-4.47;100.00